Time;durP1;ratioP1;P1;durP2;ratioP2;P2;SDS_P1;SDS_P2;PMS_P1;PMS_P2;Temp;Humidity;BMP_temperature;BMP_pressure;BME280_temperature;BME280_humidity;BME280_pressure;Samples;Min_cycle;Max_cycle;Signal;HPM_P1;HPM_P2
2023/01/31 00:01:10;;;;;;;24.67;3.58;;;;;;;4.41;100.00;102540.59;5086482;28;20031;-65
2023/01/31 00:03:36;;;;;;;18.33;2.92;;;;;;;4.46;100.00;102547.63;5081865;28;20035;-64
2023/01/31 00:06:35;;;;;;;18.95;2.85;;;;;;;4.52;100.00;102553.81;5069313;28;20028;-64
2023/01/31 00:09:02;;;;;;;30.33;4.22;;;;;;;4.56;100.00;102549.56;5066914;28;20035;-67
2023/01/31 00:11:29;;;;;;;21.35;3.40;;;;;;;4.62;100.00;102549.69;5068208;28;20031;-66
2023/01/31 00:13:55;;;;;;;16.33;3.53;;;;;;;4.67;100.00;102553.25;5072738;28;20104;-62
2023/01/31 00:16:22;;;;;;;23.17;3.38;;;;;;;4.73;100.00;102543.78;5087475;28;20212;-65
2023/01/31 00:18:47;;;;;;;18.50;3.35;;;;;;;4.76;100.00;102536.84;5087853;28;20068;-65
2023/01/31 00:21:17;;;;;;;16.20;2.83;;;;;;;4.80;100.00;102530.84;5120171;28;20067;-67
2023/01/31 00:23:43;;;;;;;15.40;2.85;;;;;;;4.77;100.00;102528.19;5079939;28;20085;-62
2023/01/31 00:26:16;;;;;;;22.73;4.15;;;;;;;4.73;100.00;102515.91;5088761;28;20032;-64
2023/01/31 00:28:42;;;;;;;19.27;2.80;;;;;;;4.69;100.00;102511.47;5087620;28;20100;-65
2023/01/31 00:31:09;;;;;;;18.77;3.50;;;;;;;4.63;100.00;102496.59;5088317;28;20035;-65
2023/01/31 00:33:35;;;;;;;19.75;2.67;;;;;;;4.57;100.00;102496.47;5081278;28;20020;-64
2023/01/31 00:36:26;;;;;;;17.42;2.80;;;;;;;4.60;100.00;102483.47;5087606;28;20039;-64
2023/01/31 00:38:54;;;;;;;16.95;2.63;;;;;;;4.55;100.00;102486.00;5082219;28;20134;-64
2023/01/31 00:41:20;;;;;;;15.55;3.55;;;;;;;4.48;100.00;102478.06;5090845;28;20684;-63
2023/01/31 00:43:46;;;;;;;16.73;2.80;;;;;;;4.42;100.00;102470.97;5090829;28;20358;-64
2023/01/31 00:46:11;;;;;;;21.85;2.72;;;;;;;4.38;100.00;102466.56;5091549;28;20028;-64
2023/01/31 00:48:36;;;;;;;18.75;2.67;;;;;;;4.43;100.00;102464.91;5089812;28;20314;-66
2023/01/31 00:51:02;;;;;;;17.98;2.45;;;;;;;4.40;100.00;102465.72;5086289;28;20081;-65
2023/01/31 00:53:27;;;;;;;16.52;2.50;;;;;;;4.42;100.00;102463.13;5090538;28;20030;-61
2023/01/31 00:55:59;;;;;;;26.15;3.45;;;;;;;4.44;100.00;102451.00;5090876;28;20497;-64
2023/01/31 00:58:25;;;;;;;18.42;2.55;;;;;;;4.42;100.00;102447.47;5088713;28;20059;-65
2023/01/31 01:00:50;;;;;;;16.70;3.97;;;;;;;4.43;100.00;102446.66;5076924;28;20117;-63
2023/01/31 01:03:15;;;;;;;18.95;2.53;;;;;;;4.36;100.00;102450.88;5071002;28;20024;-66
2023/01/31 01:05:41;;;;;;;24.95;3.83;;;;;;;4.33;100.00;102457.78;5070744;28;20107;-63
2023/01/31 01:08:06;;;;;;;25.83;3.72;;;;;;;4.37;100.00;102449.16;5071543;28;20028;-64
2023/01/31 01:10:32;;;;;;;15.82;2.72;;;;;;;4.37;100.00;102447.41;5071850;28;20111;-66
2023/01/31 01:12:58;;;;;;;10.10;2.33;;;;;;;4.46;100.00;102440.59;5070671;28;20071;-65
2023/01/31 01:15:23;;;;;;;17.77;2.72;;;;;;;4.43;100.00;102444.03;5069032;28;20107;-64
2023/01/31 01:17:49;;;;;;;23.58;2.90;;;;;;;4.45;100.00;102437.09;5069118;28;20107;-63
2023/01/31 01:20:15;;;;;;;19.10;3.03;;;;;;;4.46;100.00;102440.59;5083474;28;20032;-67
2023/01/31 01:22:41;;;;;;;18.00;2.55;;;;;;;4.41;100.00;102436.19;5091102;28;20674;-65
2023/01/31 01:25:07;;;;;;;17.92;3.35;;;;;;;4.40;100.00;102423.09;5089662;28;20028;-64
2023/01/31 01:27:33;;;;;;;21.95;3.38;;;;;;;4.44;100.00;102422.28;5090909;28;20059;-65
2023/01/31 01:29:59;;;;;;;18.13;3.40;;;;;;;4.50;100.00;102431.97;5079099;28;20047;-65
2023/01/31 01:32:24;;;;;;;24.30;3.83;;;;;;;4.56;100.00;102434.69;5070539;28;20747;-64
2023/01/31 01:34:49;;;;;;;33.35;4.22;;;;;;;4.62;100.00;102436.50;5069845;28;20058;-62
2023/01/31 01:37:21;;;;;;;30.00;4.57;;;;;;;4.62;100.00;102433.91;5069611;28;20039;-64
2023/01/31 01:39:47;;;;;;;28.88;5.00;;;;;;;4.73;100.00;102440.16;5071172;28;20020;-65
2023/01/31 01:42:18;;;;;;;26.73;4.57;;;;;;;4.85;100.00;102456.91;5070298;28;20036;-62
2023/01/31 01:45:04;;;;;;;31.42;4.10;;;;;;;4.93;100.00;102450.06;5068990;28;20037;-66
2023/01/31 01:47:44;;;;;;;24.25;3.55;;;;;;;5.06;100.00;102459.84;5069416;28;20047;-64
2023/01/31 01:50:17;;;;;;;31.85;4.70;;;;;;;5.08;100.00;102452.03;5073912;28;20533;-64
2023/01/31 01:52:47;;;;;;;26.88;4.10;;;;;;;5.14;100.00;102459.97;5069307;28;20503;-65
2023/01/31 01:55:18;;;;;;;23.95;4.25;;;;;;;5.27;100.00;102461.03;5067374;28;20036;-64
2023/01/31 01:57:46;;;;;;;35.08;6.00;;;;;;;5.34;100.00;102451.56;5069343;28;20045;-65
2023/01/31 02:00:19;;;;;;;22.57;4.80;;;;;;;5.42;100.00;102451.66;5069527;28;20487;-65
2023/01/31 02:02:46;;;;;;;40.90;5.45;;;;;;;5.48;100.00;102459.56;5068227;28;20123;-64
2023/01/31 02:05:16;;;;;;;30.13;4.38;;;;;;;5.52;100.00;102455.28;5067441;28;20035;-64
2023/01/31 02:07:42;;;;;;;33.00;4.97;;;;;;;5.63;100.00;102463.25;5069332;28;20024;-65
2023/01/31 02:10:14;;;;;;;30.85;4.53;;;;;;;5.66;100.00;102445.84;5070514;28;20023;-62
2023/01/31 02:12:39;;;;;;;42.67;5.72;;;;;;;5.77;100.00;102446.00;5069431;28;20107;-64
2023/01/31 02:15:06;;;;;;;36.67;5.18;;;;;;;5.82;100.00;102449.53;5067070;28;20419;-64
2023/01/31 02:17:31;;;;;;;48.40;7.07;;;;;;;5.85;100.00;102447.81;5067883;28;20028;-64
2023/01/31 02:20:08;;;;;;;31.65;5.25;;;;;;;5.89;100.00;102447.88;5079221;28;20360;-63
2023/01/31 02:22:50;;;;;;;41.00;5.18;;;;;;;5.87;100.00;102446.97;5089301;28;20035;-64
2023/01/31 02:25:31;;;;;;;33.78;5.03;;;;;;;5.89;100.00;102457.47;5086852;28;20020;-65
2023/01/31 02:28:25;;;;;;;30.27;5.22;;;;;;;5.93;100.00;102448.81;5088108;28;20105;-63
2023/01/31 02:31:10;;;;;;;25.60;5.28;;;;;;;5.74;100.00;102440.72;5071035;28;20044;-64
2023/01/31 02:33:42;;;;;;;37.72;5.25;;;;;;;5.85;100.00;102439.97;5067026;28;20059;-64
2023/01/31 02:36:12;;;;;;;36.97;4.93;;;;;;;5.84;100.00;102443.47;5066579;28;20387;-62
2023/01/31 02:38:53;;;;;;;34.17;5.45;;;;;;;5.90;100.00;102430.47;5068527;28;20406;-65
2023/01/31 02:42:03;;;;;;;42.28;6.13;;;;;;;5.86;100.00;102433.88;5089905;28;20032;-58
2023/01/31 02:44:58;;;;;;;33.20;5.68;;;;;;;5.94;100.00;102432.25;5056663;28;20105;-63
2023/01/31 02:47:32;;;;;;;40.80;5.13;;;;;;;6.05;100.00;102425.41;5089099;28;20119;-64
2023/01/31 02:50:13;;;;;;;32.65;5.10;;;;;;;6.08;100.00;102440.25;5077455;28;20028;-65
2023/01/31 02:52:52;;;;;;;36.78;5.22;;;;;;;6.10;100.00;102427.19;5066954;28;20032;-66
2023/01/31 02:58:07;;;;;;;30.13;6.05;;;;;;;6.14;100.00;102421.16;5068364;28;19923;-56
2023/01/31 03:00:34;;;;;;;34.72;5.22;;;;;;;6.15;100.00;102417.66;5068981;28;20043;-63
2023/01/31 03:02:59;;;;;;;33.30;6.10;;;;;;;6.22;100.00;102409.00;5066569;28;20028;-64
2023/01/31 03:05:24;;;;;;;33.85;6.50;;;;;;;6.24;100.00;102409.91;5067695;28;20494;-65
2023/01/31 03:07:55;;;;;;;38.35;5.57;;;;;;;6.31;100.00;102410.81;5069208;28;20036;-64
2023/01/31 03:10:44;;;;;;;35.03;5.75;;;;;;;6.44;100.00;102412.69;5069647;28;20035;-64
2023/01/31 03:13:33;;;;;;;36.38;5.82;;;;;;;6.36;100.00;102411.75;5066539;28;20039;-64
2023/01/31 03:19:14;;;;;;;36.55;5.60;;;;;;;6.41;100.00;102409.19;5069453;28;20489;-64
2023/01/31 03:21:53;;;;;;;34.03;6.10;;;;;;;6.41;100.00;102403.97;5067561;28;20035;-63
2023/01/31 03:24:19;;;;;;;43.72;7.47;;;;;;;6.30;100.00;102407.31;5065925;28;20029;-65
2023/01/31 03:26:48;;;;;;;30.88;6.93;;;;;;;6.22;100.00;102403.78;5066270;28;20375;-65
2023/01/31 03:29:14;;;;;;;44.20;5.53;;;;;;;6.22;100.00;102406.38;5068725;28;20033;-64
2023/01/31 03:31:49;;;;;;;33.70;5.15;;;;;;;6.21;100.00;102404.63;5067134;28;20028;-62
2023/01/31 03:34:16;;;;;;;26.65;5.70;;;;;;;6.12;100.00;102400.19;5066899;28;20053;-65
2023/01/31 03:36:50;;;;;;;25.25;5.32;;;;;;;6.15;100.00;102394.09;5065063;28;20609;-63
2023/01/31 03:39:38;;;;;;;33.63;6.00;;;;;;;6.12;100.00;102394.06;5067485;28;20044;-61
2023/01/31 03:42:12;;;;;;;32.78;6.72;;;;;;;6.08;100.00;102393.16;5067728;28;20021;-63
2023/01/31 03:44:54;;;;;;;45.10;7.45;;;;;;;6.09;100.00;102391.41;5098871;28;20024;-66
2023/01/31 03:47:25;;;;;;;37.53;6.05;;;;;;;6.01;100.00;102384.34;5068469;28;20075;-62
2023/01/31 03:49:53;;;;;;;34.05;6.00;;;;;;;5.99;100.00;102375.59;5078431;28;20446;-66
2023/01/31 03:52:26;;;;;;;34.20;6.97;;;;;;;5.99;100.00;102377.34;5088363;28;20019;-64
2023/01/31 03:54:57;;;;;;;37.63;6.63;;;;;;;5.96;100.00;102382.53;5086960;28;20099;-63
2023/01/31 03:57:28;;;;;;;45.85;6.55;;;;;;;5.95;100.00;102379.03;5085824;28;20162;-65
2023/01/31 03:59:56;;;;;;;37.90;7.55;;;;;;;5.94;100.00;102388.63;5074605;28;20092;-63
2023/01/31 04:02:31;;;;;;;38.38;5.95;;;;;;;6.01;100.00;102393.91;5066540;28;20029;-63
2023/01/31 04:05:06;;;;;;;28.80;5.95;;;;;;;6.07;100.00;102387.06;5065658;28;20060;-64
2023/01/31 04:07:31;;;;;;;34.80;5.35;;;;;;;6.23;100.00;102376.72;5066207;28;20111;-63
2023/01/31 04:09:57;;;;;;;24.95;5.40;;;;;;;6.24;100.00;102386.34;5068541;28;20111;-64
2023/01/31 04:12:22;;;;;;;35.17;7.00;;;;;;;6.28;100.00;102375.03;5067233;28;20513;-64
2023/01/31 04:14:48;;;;;;;34.13;6.03;;;;;;;6.29;100.00;102368.94;5068310;28;20050;-62
2023/01/31 04:17:13;;;;;;;33.40;5.65;;;;;;;6.32;100.00;102355.88;5071745;28;20475;-61
2023/01/31 04:19:38;;;;;;;32.55;6.78;;;;;;;6.44;100.00;102359.44;5072312;28;20033;-65
2023/01/31 04:22:04;;;;;;;41.63;5.95;;;;;;;6.43;100.00;102355.97;5072007;28;20496;-64
2023/01/31 04:24:29;;;;;;;29.88;5.30;;;;;;;6.42;100.00;102359.41;5069690;28;20379;-66
2023/01/31 04:26:54;;;;;;;34.00;6.05;;;;;;;6.45;100.00;102350.75;5071920;28;20017;-63
2023/01/31 04:29:20;;;;;;;36.70;5.82;;;;;;;6.52;100.00;102356.88;5073833;28;20036;-63
2023/01/31 04:31:46;;;;;;;27.52;5.55;;;;;;;6.53;100.00;102349.03;5069694;28;20020;-65
2023/01/31 04:34:11;;;;;;;25.08;4.82;;;;;;;6.56;100.00;102353.41;5070931;28;20037;-65
2023/01/31 04:36:37;;;;;;;38.33;5.03;;;;;;;6.53;100.00;102346.41;5070943;28;20526;-61
2023/01/31 04:39:02;;;;;;;30.48;5.25;;;;;;;6.56;100.00;102349.06;5071843;28;20082;-66
2023/01/31 04:41:28;;;;;;;41.55;5.60;;;;;;;6.53;100.00;102332.47;5071527;28;20033;-65
2023/01/31 04:43:53;;;;;;;27.52;4.32;;;;;;;6.59;100.00;102331.63;5070550;28;20662;-61
2023/01/31 04:46:18;;;;;;;27.88;4.68;;;;;;;6.59;100.00;102332.47;5072042;28;20033;-63
2023/01/31 04:48:44;;;;;;;29.17;4.68;;;;;;;6.59;100.00;102331.63;5074279;28;20115;-64
2023/01/31 04:51:09;;;;;;;23.00;4.80;;;;;;;6.61;100.00;102328.16;5090341;28;20028;-63
2023/01/31 04:53:35;;;;;;;42.72;6.90;;;;;;;6.59;100.00;102336.88;5089458;28;20031;-63
2023/01/31 04:56:01;;;;;;;37.53;5.20;;;;;;;6.67;100.00;102337.78;5090795;28;20032;-64
2023/01/31 04:58:27;;;;;;;38.20;5.30;;;;;;;6.61;100.00;102332.50;5087678;28;20110;-64
2023/01/31 05:00:53;;;;;;;27.63;4.78;;;;;;;6.61;100.00;102327.25;5071866;28;20025;-66
2023/01/31 05:03:18;;;;;;;36.17;5.25;;;;;;;6.69;100.00;102326.44;5071747;28;20012;-64
2023/01/31 05:05:47;;;;;;;24.98;4.82;;;;;;;6.70;100.00;102319.47;5068510;28;20360;-64
2023/01/31 05:08:12;;;;;;;26.50;4.37;;;;;;;6.75;100.00;102328.25;5069477;28;20063;-64
2023/01/31 05:10:37;;;;;;;23.52;3.75;;;;;;;6.72;100.00;102317.75;5072013;28;20502;-64
2023/01/31 05:13:03;;;;;;;28.20;5.45;;;;;;;6.76;100.00;102310.75;5073294;28;20406;-61
2023/01/31 05:15:28;;;;;;;25.90;4.22;;;;;;;6.77;100.00;102304.69;5073780;28;20078;-64
2023/01/31 05:18:03;;;;;;;34.15;4.05;;;;;;;6.75;100.00;102302.06;5088090;28;20028;-65
2023/01/31 05:20:37;;;;;;;24.77;4.70;;;;;;;6.78;100.00;102314.28;5090102;28;20028;-61
2023/01/31 05:23:02;;;;;;;24.08;3.97;;;;;;;6.80;100.00;102310.78;5082975;28;20095;-65
2023/01/31 05:25:29;;;;;;;21.83;3.78;;;;;;;6.74;100.00;102323.84;5083708;28;20115;-65
2023/01/31 05:27:55;;;;;;;36.92;5.03;;;;;;;6.74;100.00;102321.22;5069647;28;20036;-61
2023/01/31 05:30:23;;;;;;;28.10;4.07;;;;;;;6.88;100.00;102325.69;5084506;28;20073;-63
2023/01/31 05:32:48;;;;;;;33.13;4.72;;;;;;;6.87;100.00;102321.31;5090803;28;20480;-61
2023/01/31 05:35:14;;;;;;;36.50;5.28;;;;;;;6.85;100.00;102316.06;5090289;28;20024;-66
2023/01/31 05:37:43;;;;;;;26.10;4.97;;;;;;;6.94;100.00;102313.50;5089593;28;20024;-57
2023/01/31 05:40:09;;;;;;;;;;;;;;;6.94;100.00;102315.25;5091173;28;20028;-63
2023/01/31 05:42:35;;;;;;;25.33;4.28;;;;;;;6.89;100.00;102309.13;5089676;28;20417;-63
2023/01/31 05:45:00;;;;;;;23.30;3.85;;;;;;;6.91;100.00;102309.97;5090699;28;20047;-64
2023/01/31 05:47:25;;;;;;;39.42;6.15;;;;;;;6.83;100.00;102316.06;5090235;28;20051;-67
2023/01/31 05:49:51;;;;;;;30.48;4.50;;;;;;;6.95;100.00;102319.59;5089768;28;20415;-65
2023/01/31 05:52:16;;;;;;;27.35;4.68;;;;;;;6.90;100.00;102316.09;5090058;28;20090;-62
2023/01/31 05:54:41;;;;;;;29.40;5.22;;;;;;;6.95;100.00;102324.84;5087681;28;20032;-63
2023/01/31 05:57:07;;;;;;;21.52;4.30;;;;;;;6.94;100.00;102328.34;5088230;28;20024;-63
2023/01/31 05:59:32;;;;;;;25.77;4.40;;;;;;;6.93;100.00;102322.22;5088257;28;20106;-64
2023/01/31 06:01:58;;;;;;;28.45;5.00;;;;;;;7.00;100.00;102317.91;5075859;28;20027;-63
2023/01/31 06:04:23;;;;;;;23.88;3.45;;;;;;;6.92;100.00;102299.50;5069346;28;20380;-63
2023/01/31 06:06:48;;;;;;;22.48;4.43;;;;;;;6.90;100.00;102290.78;5069530;28;20032;-65
2023/01/31 06:09:14;;;;;;;26.08;4.80;;;;;;;6.92;100.00;102293.38;5075913;28;20039;-63
2023/01/31 06:11:39;;;;;;;25.35;4.70;;;;;;;6.93;100.00;102293.38;5079254;28;20051;-65
2023/01/31 06:14:05;;;;;;;32.90;4.53;;;;;;;7.00;100.00;102301.28;5070580;28;20485;-63
2023/01/31 06:16:31;;;;;;;27.17;4.45;;;;;;;6.82;100.00;102288.13;5084065;28;20095;-63
2023/01/31 06:18:56;;;;;;;32.67;6.32;;;;;;;6.87;100.00;102308.22;5088413;28;20028;-65
2023/01/31 06:21:22;;;;;;;22.50;3.88;;;;;;;6.83;100.00;102302.06;5088962;28;20032;-64
2023/01/31 06:23:47;;;;;;;26.15;4.93;;;;;;;6.96;100.00;102295.16;5071869;28;20027;-64
2023/01/31 06:26:13;;;;;;;28.75;4.03;;;;;;;6.89;100.00;102304.72;5069631;28;20025;-64
2023/01/31 06:28:38;;;;;;;22.77;4.07;;;;;;;6.92;100.00;102294.25;5068350;28;20368;-64
2023/01/31 06:31:07;;;;;;;30.15;4.20;;;;;;;6.93;100.00;102297.78;5069700;28;20429;-62
2023/01/31 06:33:33;;;;;;;31.13;4.95;;;;;;;6.92;100.00;102301.25;5070590;28;20036;-66
2023/01/31 06:35:59;;;;;;;23.17;3.70;;;;;;;6.89;100.00;102285.53;5069477;28;20024;-64
2023/01/31 06:38:25;;;;;;;30.00;4.82;;;;;;;6.86;100.00;102288.13;5066097;28;20032;-63
2023/01/31 06:40:50;;;;;;;24.25;4.60;;;;;;;6.82;100.00;102267.16;5069415;28;20029;-62
2023/01/31 06:43:15;;;;;;;33.88;3.85;;;;;;;6.92;100.00;102282.91;5072710;28;20419;-64
2023/01/31 06:45:43;;;;;;;28.45;3.55;;;;;;;6.93;100.00;102266.31;5069172;28;20119;-66
2023/01/31 06:48:09;;;;;;;28.48;4.05;;;;;;;6.80;100.00;102258.41;5068307;28;20222;-65
2023/01/31 06:50:34;;;;;;;24.33;4.05;;;;;;;6.97;100.00;102254.97;5069208;28;20127;-65
2023/01/31 06:53:00;;;;;;;26.23;4.00;;;;;;;6.91;100.00;102250.59;5077575;28;20024;-65
2023/01/31 06:55:25;;;;;;;24.15;3.78;;;;;;;6.96;100.00;102253.25;5083112;28;20068;-64
2023/01/31 06:57:50;;;;;;;17.40;3.45;;;;;;;6.95;100.00;102252.34;5068995;28;20127;-66
2023/01/31 07:00:19;;;;;;;24.67;3.75;;;;;;;6.97;100.00;102251.47;5068047;28;20040;-61
2023/01/31 07:02:45;;;;;;;25.23;3.55;;;;;;;7.00;100.00;102254.09;5067773;28;20028;-67
2023/01/31 07:05:11;;;;;;;27.08;4.32;;;;;;;7.03;100.00;102247.16;5069216;28;20043;-65
2023/01/31 07:07:36;;;;;;;22.38;3.63;;;;;;;7.01;100.00;102234.91;5067376;28;20020;-63
2023/01/31 07:10:01;;;;;;;22.20;3.88;;;;;;;6.98;100.00;102243.63;5068560;28;20115;-64
2023/01/31 07:12:27;;;;;;;17.77;2.65;;;;;;;7.04;100.00;102224.41;5068748;28;20070;-64
2023/01/31 07:14:52;;;;;;;17.63;3.08;;;;;;;7.04;100.00;102220.06;5073148;28;20029;-64
2023/01/31 07:17:19;;;;;;;25.10;2.90;;;;;;;6.98;100.00;102220.03;5068102;28;20024;-64
2023/01/31 07:19:45;;;;;;;19.05;3.15;;;;;;;6.88;100.00;102221.75;5082204;28;20024;-61
2023/01/31 07:22:10;;;;;;;16.20;3.25;;;;;;;7.02;100.00;102226.16;5086794;28;20514;-65
2023/01/31 07:24:36;;;;;;;12.77;3.00;;;;;;;7.03;100.00;102231.41;5072467;28;20030;-63
2023/01/31 07:27:01;;;;;;;18.63;3.65;;;;;;;6.93;100.00;102220.00;5081553;28;20046;-65
2023/01/31 07:29:26;;;;;;;17.83;3.30;;;;;;;7.03;100.00;102227.91;5087310;28;20032;-64
2023/01/31 07:31:54;;;;;;;17.00;2.72;;;;;;;6.97;100.00;102218.28;5087773;28;20454;-63
2023/01/31 07:34:21;;;;;;;24.63;3.60;;;;;;;6.95;100.00;102220.00;5082999;28;20070;-64
2023/01/31 07:36:49;;;;;;;20.23;3.25;;;;;;;6.88;100.00;102220.88;5083610;28;20016;-65
2023/01/31 07:39:15;;;;;;;21.15;3.42;;;;;;;7.03;100.00;102210.44;5087398;28;20027;-64
2023/01/31 07:41:40;;;;;;;13.98;3.67;;;;;;;7.17;100.00;102207.00;5087943;28;20024;-64
2023/01/31 07:44:07;;;;;;;19.70;4.15;;;;;;;7.13;100.00;102200.00;5086115;28;20077;-64
2023/01/31 07:46:33;;;;;;;25.85;3.08;;;;;;;7.10;100.00;102208.72;5087809;28;20028;-64
2023/01/31 07:48:59;;;;;;;18.30;2.80;;;;;;;7.24;100.00;102200.88;5086673;28;20485;-64
2023/01/31 07:51:24;;;;;;;21.15;3.30;;;;;;;7.19;100.00;102202.59;5087701;28;20059;-65
2023/01/31 07:53:49;;;;;;;19.77;3.05;;;;;;;7.27;100.00;102193.03;5072526;28;20025;-64
2023/01/31 07:56:16;;;;;;;20.73;3.38;;;;;;;7.32;100.00;102185.19;5067509;28;20026;-64
2023/01/31 07:58:43;;;;;;;15.73;2.75;;;;;;;7.26;100.00;102183.44;5065019;28;20088;-64
2023/01/31 08:04:05;;;;;;;13.52;2.33;;;;;;;7.07;100.00;102167.66;5068743;28;20051;-64
2023/01/31 08:06:31;;;;;;;24.20;2.70;;;;;;;7.03;100.00;102185.97;5066535;28;20078;-65
2023/01/31 08:08:56;;;;;;;16.00;2.30;;;;;;;6.97;100.00;102178.97;5065622;28;20028;-64
2023/01/31 08:11:22;;;;;;;16.50;2.40;;;;;;;6.96;100.00;102185.09;5067474;28;20029;-65
2023/01/31 08:13:48;;;;;;;16.17;2.38;;;;;;;7.01;100.00;102191.22;5066945;28;20013;-64
2023/01/31 08:16:13;;;;;;;19.98;2.45;;;;;;;6.98;100.00;102187.72;5067616;28;20643;-64
2023/01/31 08:18:39;;;;;;;13.85;2.65;;;;;;;6.98;100.00;102185.97;5068538;28;20120;-64
2023/01/31 08:21:04;;;;;;;15.95;2.22;;;;;;;6.98;100.00;102172.84;5067253;28;20024;-62
2023/01/31 08:23:30;;;;;;;16.08;2.58;;;;;;;6.92;100.00;102197.31;5066001;28;20035;-63
2023/01/31 08:26:16;;;;;;;13.73;2.55;;;;;;;6.83;100.00;102189.41;5069072;28;20485;-65
2023/01/31 08:28:43;;;;;;;12.00;2.47;;;;;;;6.78;100.00;102163.22;5066881;28;20383;-64
2023/01/31 08:31:14;;;;;;;17.17;2.67;;;;;;;6.85;100.00;102166.72;5066187;28;20032;-65
2023/01/31 08:33:39;;;;;;;13.18;2.60;;;;;;;6.73;100.00;102167.56;5069049;28;20028;-64
2023/01/31 08:36:10;;;;;;;20.73;3.05;;;;;;;6.77;100.00;102169.31;5067118;28;20031;-63
2023/01/31 08:38:35;;;;;;;15.88;2.35;;;;;;;6.86;100.00;102160.59;5074519;28;20028;-64
2023/01/31 08:41:00;;;;;;;17.70;2.58;;;;;;;6.87;100.00;102154.50;5081864;28;20028;-64
2023/01/31 08:43:26;;;;;;;27.70;3.90;;;;;;;6.88;100.00;102150.13;5084990;28;20074;-65
2023/01/31 08:45:51;;;;;;;24.58;3.28;;;;;;;6.99;100.00;102156.28;5087450;28;20020;-63
2023/01/31 08:48:16;;;;;;;18.52;3.15;;;;;;;6.99;100.00;102156.28;5086377;28;20039;-66
2023/01/31 08:50:42;;;;;;;16.27;3.13;;;;;;;7.08;100.00;102158.91;5075487;28;20029;-65
2023/01/31 08:53:07;;;;;;;16.50;2.50;;;;;;;7.05;100.00;102168.53;5066753;28;20487;-63
2023/01/31 08:55:34;;;;;;;21.85;3.47;;;;;;;7.10;100.00;102172.00;5064960;28;20494;-66
2023/01/31 08:58:00;;;;;;;18.17;3.28;;;;;;;7.16;100.00;102176.38;5063043;28;20511;-62
2023/01/31 09:00:26;;;;;;;19.80;2.75;;;;;;;7.18;100.00;102177.28;5063524;28;20658;-64
2023/01/31 09:02:57;;;;;;;19.63;3.17;;;;;;;7.17;100.00;102168.53;5068208;28;20016;-62
2023/01/31 09:05:24;;;;;;;19.80;3.40;;;;;;;7.29;100.00;102182.56;5066497;28;20059;-61
2023/01/31 09:07:49;;;;;;;19.10;3.05;;;;;;;7.39;100.00;102178.19;5067615;28;20017;-63
2023/01/31 09:10:15;;;;;;;24.17;3.25;;;;;;;7.36;100.00;102175.53;5069691;28;20498;-61
2023/01/31 09:12:41;;;;;;;20.20;3.75;;;;;;;7.24;100.00;102169.44;5069270;28;20024;-65
2023/01/31 09:15:07;;;;;;;26.73;2.97;;;;;;;7.27;100.00;102165.94;5067924;28;20021;-64
2023/01/31 09:17:32;;;;;;;21.88;3.38;;;;;;;7.32;100.00;102170.31;5070447;28;20033;-64
2023/01/31 09:19:57;;;;;;;22.92;2.70;;;;;;;7.40;100.00;102159.81;5069781;28;20020;-66
2023/01/31 09:22:23;;;;;;;23.88;3.47;;;;;;;7.50;100.00;102155.47;5066935;28;20033;-64
2023/01/31 09:24:48;;;;;;;18.90;3.13;;;;;;;7.75;100.00;102138.81;5070079;28;20106;-61
2023/01/31 09:27:13;;;;;;;21.98;3.42;;;;;;;7.71;100.00;102135.34;5069638;28;20105;-65
2023/01/31 09:29:39;;;;;;;22.25;3.53;;;;;;;7.77;100.00;102134.47;5067997;28;20039;-65
2023/01/31 09:32:05;;;;;;;25.17;3.78;;;;;;;7.91;100.00;102139.69;5071631;28;20502;-64
2023/01/31 09:34:30;;;;;;;19.75;2.97;;;;;;;7.95;100.00;102123.06;5067388;28;20418;-64
2023/01/31 09:36:56;;;;;;;15.45;3.42;;;;;;;8.02;100.00;102130.03;5067541;28;20047;-63
2023/01/31 09:39:22;;;;;;;22.08;3.22;;;;;;;7.96;100.00;102127.44;5070091;28;20024;-64
2023/01/31 09:41:57;;;;;;;24.08;3.38;;;;;;;7.83;100.00;102113.47;5069060;28;20051;-66
2023/01/31 09:44:30;;;;;;;22.83;3.42;;;;;;;7.87;100.00;102124.81;5068123;28;20020;-60
2023/01/31 09:47:27;;;;;;;26.17;2.90;;;;;;;7.83;100.00;102122.19;5122047;27;20038;-64
2023/01/31 09:50:15;;;;;;;23.77;3.53;;;;;;;7.99;100.00;102132.69;5065184;28;20061;-64
2023/01/31 09:52:41;;;;;;;16.23;3.47;;;;;;;8.00;100.00;102126.53;5057417;28;20036;-65
2023/01/31 09:55:14;;;;;;;25.58;3.55;;;;;;;8.17;100.00;102136.13;5070912;28;20051;-65
2023/01/31 09:57:54;;;;;;;21.92;3.95;;;;;;;8.22;100.00;102132.59;5067030;28;20121;-64
2023/01/31 10:00:45;;;;;;;22.80;3.28;;;;;;;8.20;100.00;102142.25;5074229;28;20036;-64
2023/01/31 10:03:10;;;;;;;27.13;4.70;;;;;;;8.25;100.00;102147.47;5067825;28;20056;-65
2023/01/31 10:05:50;;;;;;;27.30;4.60;;;;;;;8.21;100.00;102133.50;5069738;28;20082;-66
2023/01/31 10:08:46;;;;;;;17.85;3.28;;;;;;;8.27;100.00;102126.47;5068733;28;20032;-66
2023/01/31 10:11:28;;;;;;;17.73;3.83;;;;;;;8.48;100.00;102136.00;5086968;28;20031;-64
2023/01/31 10:14:16;;;;;;;24.35;3.15;;;;;;;8.35;100.00;102143.06;5067100;28;20056;-66
2023/01/31 10:16:46;;;;;;;30.05;3.78;;;;;;;8.45;100.00;102131.66;5062238;28;20108;-65
2023/01/31 10:19:16;;;;;;;25.48;3.88;;;;;;;8.51;100.00;102159.66;5075107;28;20055;-64
2023/01/31 10:21:47;;;;;;;19.55;3.58;;;;;;;8.41;100.00;102158.81;5081110;28;20066;-63
2023/01/31 10:24:22;;;;;;;18.50;3.65;;;;;;;8.44;100.00;102152.69;5077151;28;20032;-62
2023/01/31 10:26:50;;;;;;;25.15;3.65;;;;;;;8.46;100.00;102169.31;5086503;28;20027;-62
2023/01/31 10:29:21;;;;;;;23.83;3.80;;;;;;;8.48;100.00;102141.28;5069542;28;20365;-64
2023/01/31 10:31:52;;;;;;;20.00;3.65;;;;;;;8.47;100.00;102142.16;5088386;28;20028;-59
2023/01/31 10:34:23;;;;;;;22.13;3.22;;;;;;;8.45;100.00;102139.53;5083165;28;20037;-62
2023/01/31 10:36:54;;;;;;;31.55;4.47;;;;;;;8.46;100.00;102135.16;5075872;28;20131;-62
2023/01/31 10:39:36;;;;;;;33.97;4.63;;;;;;;8.50;100.00;102130.75;5121319;27;20133;-64
2023/01/31 10:42:01;;;;;;;21.92;3.45;;;;;;;8.66;100.00;102118.44;5108255;27;20070;-62
2023/01/31 10:44:39;;;;;;;26.13;3.45;;;;;;;8.82;100.00;102116.63;5072694;28;20431;-66
2023/01/31 10:47:11;;;;;;;21.85;3.75;;;;;;;8.78;100.00;102131.53;5081497;28;20028;-63
2023/01/31 10:49:36;;;;;;;25.02;3.70;;;;;;;8.87;100.00;102127.09;5067090;28;20113;-62
2023/01/31 10:52:27;;;;;;;23.00;4.85;;;;;;;8.74;100.00;102135.06;5066366;28;20132;-65
2023/01/31 10:55:04;;;;;;;14.77;3.83;;;;;;;8.69;100.00;102121.06;5080208;28;20032;-61
2023/01/31 10:57:30;;;;;;;31.90;4.65;;;;;;;8.65;100.00;102125.47;5087090;28;20020;-62
2023/01/31 10:59:56;;;;;;;25.77;4.00;;;;;;;8.57;100.00;102146.53;5077901;28;20044;-66
2023/01/31 11:02:23;;;;;;;29.30;3.72;;;;;;;8.51;100.00;102149.13;5086605;28;20036;-63
2023/01/31 11:04:52;;;;;;;19.70;3.30;;;;;;;8.50;100.00;102143.88;5082850;28;20102;-64
2023/01/31 11:07:17;;;;;;;18.20;3.35;;;;;;;8.65;100.00;102136.00;5068361;28;20563;-66
2023/01/31 11:09:47;;;;;;;20.73;3.88;;;;;;;8.67;100.00;102133.34;5068850;28;20107;-66
2023/01/31 11:12:13;;;;;;;21.10;3.47;;;;;;;8.75;100.00;102142.06;5076940;28;20066;-65
2023/01/31 11:14:38;;;;;;;28.75;4.20;;;;;;;8.78;100.00;102143.78;5086459;28;20111;-63
2023/01/31 11:17:23;;;;;;;29.70;3.63;;;;;;;8.77;100.00;102142.06;5083730;28;20020;-65
2023/01/31 11:19:55;;;;;;;22.10;3.28;;;;;;;8.82;100.00;102140.28;5087237;28;20077;-63
2023/01/31 11:22:23;;;;;;;19.27;3.58;;;;;;;8.83;100.00;102132.38;5119049;27;20019;-65
2023/01/31 11:24:48;;;;;;;18.70;3.53;;;;;;;8.96;100.00;102134.94;5080522;28;20032;-64
2023/01/31 11:27:24;;;;;;;23.95;5.32;;;;;;;8.95;100.00;102131.44;5083144;28;20062;-63
2023/01/31 11:29:49;;;;;;;20.42;3.05;;;;;;;8.89;100.00;102133.22;5087250;28;20028;-63
2023/01/31 11:32:26;;;;;;;24.88;3.60;;;;;;;8.87;100.00;102132.34;5081273;28;20062;-65
2023/01/31 11:35:02;;;;;;;19.10;3.08;;;;;;;8.83;100.00;102179.69;5081617;28;21553;-63